Time;durP1;ratioP1;P1;durP2;ratioP2;P2;SDS_P1;SDS_P2;PMS_P1;PMS_P2;Temp;Humidity;BMP_temperature;BMP_pressure;BME280_temperature;BME280_humidity;BME280_pressure;Samples;Min_cycle;Max_cycle;Signal;HPM_P1;HPM_P2
2022/04/09 00:01:38;;;;;;;15.95;3.03;;;6.50;75.00;;;;;;5074406;28;20135;-60
2022/04/09 00:04:04;;;;;;;14.70;2.92;;;6.50;75.00;;;;;;5051903;28;20020;-60
2022/04/09 00:06:30;;;;;;;15.52;2.97;;;6.40;75.00;;;;;;5069662;28;20093;-60
2022/04/09 00:08:55;;;;;;;10.85;2.72;;;6.40;75.10;;;;;;5071905;28;20020;-60
2022/04/09 00:11:21;;;;;;;12.38;2.35;;;6.40;75.10;;;;;;5068247;28;20033;-61
2022/04/09 00:13:46;;;;;;;17.95;2.83;;;6.40;75.10;;;;;;5076755;28;20035;-62
2022/04/09 00:16:12;;;;;;;10.55;2.55;;;6.40;75.10;;;;;;5071937;28;20426;-62
2022/04/09 00:18:38;;;;;;;13.18;2.72;;;6.40;75.10;;;;;;5069615;28;20380;-60
2022/04/09 00:21:04;;;;;;;27.25;4.85;;;6.40;75.10;;;;;;5084232;28;20470;-61
2022/04/09 00:23:30;;;;;;;13.95;3.17;;;6.40;75.10;;;;;;5074032;28;20579;-61
2022/04/09 00:25:55;;;;;;;8.98;3.20;;;6.30;75.10;;;;;;5090888;28;20190;-62
2022/04/09 00:28:21;;;;;;;12.93;2.40;;;6.30;75.20;;;;;;5075840;28;20032;-60
2022/04/09 00:30:47;;;;;;;11.10;2.60;;;6.30;75.10;;;;;;5079559;28;20024;-60
2022/04/09 00:33:12;;;;;;;8.80;2.00;;;6.30;75.20;;;;;;5073094;28;20033;-61
2022/04/09 00:35:38;;;;;;;9.27;2.45;;;6.30;75.20;;;;;;5068761;28;20051;-60
2022/04/09 00:38:04;;;;;;;13.05;2.88;;;6.30;75.30;;;;;;5068595;28;20033;-59
2022/04/09 00:40:30;;;;;;;14.10;2.47;;;6.30;75.40;;;;;;5072691;28;20040;-60
2022/04/09 00:42:55;;;;;;;14.13;2.17;;;6.30;75.40;;;;;;5077145;28;20068;-60
2022/04/09 00:45:22;;;;;;;14.95;3.00;;;6.20;75.40;;;;;;5086144;28;20032;-59
2022/04/09 00:47:48;;;;;;;12.93;2.88;;;6.20;75.60;;;;;;5076701;28;20054;-59
2022/04/09 00:50:13;;;;;;;11.63;2.28;;;6.20;75.80;;;;;;5082195;28;20028;-61
2022/04/09 00:53:01;;;;;;;11.73;2.40;;;6.20;75.90;;;;;;5085760;28;20032;-60
2022/04/09 00:58:14;;;;;;;8.88;1.77;;;6.20;76.10;;;;;;5079181;28;20047;-59
2022/04/09 01:00:41;;;;;;;11.05;2.10;;;6.20;76.10;;;;;;5085173;28;20028;-59
2022/04/09 01:03:16;;;;;;;9.52;2.30;;;6.20;76.10;;;;;;5082111;28;20357;-59
2022/04/09 01:05:43;;;;;;;7.30;1.95;;;6.10;76.10;;;;;;5088497;28;20368;-60
2022/04/09 01:08:09;;;;;;;8.82;2.00;;;6.10;76.20;;;;;;5057585;28;20479;-61
2022/04/09 01:10:35;;;;;;;8.95;2.65;;;6.10;76.30;;;;;;5064094;28;20082;-59
2022/04/09 01:13:01;;;;;;;12.98;2.42;;;6.10;76.30;;;;;;5083943;28;20028;-59
2022/04/09 01:15:27;;;;;;;11.98;2.90;;;6.10;76.20;;;;;;5083269;28;20376;-59
2022/04/09 01:17:53;;;;;;;11.85;2.42;;;6.10;76.20;;;;;;5083474;28;20085;-60
2022/04/09 01:20:23;;;;;;;9.07;2.55;;;6.10;76.30;;;;;;5087113;28;20479;-61
2022/04/09 01:22:49;;;;;;;12.60;3.40;;;6.00;76.30;;;;;;5060153;28;20059;-61
2022/04/09 01:25:15;;;;;;;15.63;2.28;;;6.00;76.40;;;;;;5086114;28;20357;-61
2022/04/09 01:27:40;;;;;;;14.27;2.80;;;6.00;76.40;;;;;;5073629;28;20032;-60
2022/04/09 01:30:07;;;;;;;16.42;2.47;;;6.00;76.40;;;;;;5085784;28;20024;-61
2022/04/09 01:32:33;;;;;;;11.25;2.03;;;5.90;76.60;;;;;;5087289;28;20425;-61
2022/04/09 01:35:03;;;;;;;11.23;2.10;;;5.90;76.60;;;;;;5091060;28;20020;-60
2022/04/09 01:37:29;;;;;;;15.45;2.45;;;5.90;76.70;;;;;;5071946;28;20163;-60
2022/04/09 01:39:55;;;;;;;17.13;3.00;;;5.90;76.70;;;;;;5090293;28;20107;-61
2022/04/09 01:42:21;;;;;;;8.82;2.05;;;5.90;76.70;;;;;;5073675;28;20043;-60
2022/04/09 01:44:48;;;;;;;10.20;2.30;;;5.90;76.80;;;;;;5090676;28;20090;-60
2022/04/09 01:47:14;;;;;;;7.85;1.92;;;5.90;76.80;;;;;;5091012;28;20562;-60
2022/04/09 01:49:40;;;;;;;11.75;2.58;;;5.90;76.60;;;;;;5088927;28;20020;-60
2022/04/09 01:52:07;;;;;;;15.82;2.72;;;5.90;76.50;;;;;;5090749;28;20035;-60
2022/04/09 01:54:32;;;;;;;14.32;2.55;;;5.90;76.50;;;;;;5072635;28;20107;-60
2022/04/09 01:56:58;;;;;;;8.15;2.10;;;5.90;76.50;;;;;;5088549;28;20139;-60
2022/04/09 01:59:23;;;;;;;12.52;2.55;;;5.80;76.50;;;;;;5070717;28;20036;-60
2022/04/09 02:01:49;;;;;;;11.55;2.20;;;5.80;76.50;;;;;;5081866;28;20028;-60
2022/04/09 02:04:15;;;;;;;9.50;1.88;;;5.80;76.60;;;;;;5070250;28;20058;-60
2022/04/09 02:06:42;;;;;;;9.52;2.17;;;5.70;76.50;;;;;;5090848;28;20024;-60
2022/04/09 02:09:11;;;;;;;9.40;2.22;;;5.80;76.50;;;;;;5089756;28;20043;-60
2022/04/09 02:11:39;;;;;;;7.30;1.88;;;5.80;76.50;;;;;;5085386;28;20040;-60
2022/04/09 02:14:07;;;;;;;10.60;1.98;;;5.80;76.50;;;;;;5052241;28;20033;-60
2022/04/09 02:16:33;;;;;;;7.55;1.88;;;5.80;76.40;;;;;;5051818;28;20109;-61
2022/04/09 02:18:59;;;;;;;10.98;2.15;;;5.80;76.40;;;;;;5077518;28;20036;-61
2022/04/09 02:21:25;;;;;;;12.43;1.92;;;5.70;76.30;;;;;;5069513;28;20059;-60
2022/04/09 02:23:51;;;;;;;9.80;2.70;;;5.80;76.40;;;;;;5082921;28;20495;-60
2022/04/09 02:26:16;;;;;;;10.98;2.35;;;5.70;76.40;;;;;;5088330;28;20024;-60
2022/04/09 02:28:43;;;;;;;9.60;2.00;;;5.70;76.40;;;;;;5082201;28;20039;-60
2022/04/09 02:31:09;;;;;;;10.77;1.80;;;5.70;76.50;;;;;;5070308;28;20032;-60
2022/04/09 02:33:35;;;;;;;11.18;1.80;;;5.70;76.50;;;;;;5079084;28;20032;-61
2022/04/09 02:36:00;;;;;;;10.30;1.83;;;5.70;76.50;;;;;;5067860;28;20039;-60
2022/04/09 02:38:26;;;;;;;10.85;2.08;;;5.80;76.50;;;;;;5080646;28;20047;-60
2022/04/09 02:40:52;;;;;;;12.00;2.50;;;5.80;76.50;;;;;;5068923;28;20059;-60
2022/04/09 02:43:18;;;;;;;13.70;2.20;;;5.70;76.60;;;;;;5072617;28;20075;-60
2022/04/09 02:45:43;;;;;;;13.38;1.90;;;5.70;76.80;;;;;;5074179;28;20029;-60
2022/04/09 02:48:10;;;;;;;8.48;1.80;;;5.70;76.70;;;;;;5084232;28;20033;-60
2022/04/09 02:50:35;;;;;;;10.60;2.35;;;5.70;76.80;;;;;;5069151;28;20032;-60
2022/04/09 02:53:01;;;;;;;6.72;1.70;;;5.70;76.80;;;;;;5076549;28;20402;-60
2022/04/09 02:55:27;;;;;;;8.73;1.63;;;5.70;76.70;;;;;;5064911;28;20039;-60
2022/04/09 02:57:53;;;;;;;4.93;1.55;;;5.70;76.70;;;;;;5076915;28;20024;-60
2022/04/09 03:00:19;;;;;;;11.15;1.90;;;5.70;76.70;;;;;;5068308;28;20173;-60
2022/04/09 03:02:44;;;;;;;11.63;2.20;;;5.70;76.60;;;;;;5080658;28;20137;-60
2022/04/09 03:05:11;;;;;;;10.00;1.73;;;5.70;76.70;;;;;;5069388;28;20025;-60
2022/04/09 03:07:37;;;;;;;12.07;1.63;;;5.70;76.70;;;;;;5079963;28;20031;-60
2022/04/09 03:10:03;;;;;;;8.38;1.92;;;5.70;76.80;;;;;;5082880;28;20029;-61
2022/04/09 03:12:29;;;;;;;11.25;1.85;;;5.70;76.90;;;;;;5052059;28;20036;-61
2022/04/09 03:14:54;;;;;;;10.25;2.22;;;5.70;76.90;;;;;;5073727;28;20032;-61
2022/04/09 03:17:20;;;;;;;6.93;2.08;;;5.70;76.90;;;;;;5078972;28;20025;-62
2022/04/09 03:19:46;;;;;;;5.85;1.60;;;5.70;77.00;;;;;;5070547;28;20038;-60
2022/04/09 03:22:11;;;;;;;8.52;1.60;;;5.70;77.00;;;;;;5083737;28;20056;-60
2022/04/09 03:24:37;;;;;;;10.68;1.83;;;5.70;77.10;;;;;;5068906;28;20039;-60
2022/04/09 03:27:03;;;;;;;7.35;1.35;;;5.70;77.10;;;;;;5074903;28;20078;-60
2022/04/09 03:29:29;;;;;;;9.40;1.30;;;5.70;77.10;;;;;;5051906;28;20032;-60
2022/04/09 03:31:55;;;;;;;8.77;1.63;;;5.70;77.10;;;;;;5068891;28;20032;-60
2022/04/09 03:34:20;;;;;;;6.15;1.70;;;5.70;77.30;;;;;;5070183;28;20060;-61
2022/04/09 03:36:46;;;;;;;9.10;1.60;;;5.60;77.50;;;;;;5073831;28;20513;-61
2022/04/09 03:39:12;;;;;;;8.55;1.60;;;5.60;77.60;;;;;;5061183;28;20123;-62
2022/04/09 03:41:37;;;;;;;5.35;1.77;;;5.60;77.70;;;;;;5068247;28;20040;-62
2022/04/09 03:44:03;;;;;;;7.57;1.60;;;5.60;77.70;;;;;;5051886;28;20324;-62
2022/04/09 03:46:29;;;;;;;8.77;1.73;;;5.50;77.80;;;;;;5070894;28;20494;-62
2022/04/09 03:48:54;;;;;;;10.52;1.83;;;5.60;77.90;;;;;;5079959;28;20028;-60
2022/04/09 03:51:20;;;;;;;11.82;2.08;;;5.60;77.90;;;;;;5068164;28;20036;-60
2022/04/09 03:53:46;;;;;;;8.93;1.55;;;5.60;77.90;;;;;;5078456;28;20033;-60
2022/04/09 03:56:11;;;;;;;9.00;1.85;;;5.60;77.80;;;;;;5050619;28;20044;-60
2022/04/09 03:58:38;;;;;;;7.82;2.38;;;5.60;78.40;;;;;;5073460;28;20081;-60
2022/04/09 04:01:04;;;;;;;6.32;1.67;;;5.60;77.80;;;;;;5052994;28;20055;-60
2022/04/09 04:03:29;;;;;;;9.23;2.05;;;5.60;77.80;;;;;;5078948;28;20029;-61
2022/04/09 04:05:55;;;;;;;4.32;1.52;;;5.70;77.90;;;;;;5073356;28;20034;-62
2022/04/09 04:08:21;;;;;;;8.02;1.50;;;5.70;77.80;;;;;;5091844;28;20546;-60
2022/04/09 04:10:47;;;;;;;6.55;1.63;;;5.70;77.70;;;;;;5073717;28;20024;-60
2022/04/09 04:13:13;;;;;;;7.13;1.58;;;5.70;77.60;;;;;;5069232;28;20032;-60
2022/04/09 04:15:40;;;;;;;8.52;1.73;;;5.70;77.60;;;;;;5069775;28;20039;-60
2022/04/09 04:18:06;;;;;;;8.63;2.40;;;5.70;77.60;;;;;;5087100;28;20067;-60
2022/04/09 04:20:33;;;;;;;8.00;1.63;;;5.70;77.60;;;;;;5073680;28;20094;-61
2022/04/09 04:22:59;;;;;;;7.15;1.60;;;5.60;77.70;;;;;;5072225;28;20040;-60
2022/04/09 04:25:27;;;;;;;7.70;1.85;;;5.60;77.70;;;;;;5071603;28;20162;-60
2022/04/09 04:27:54;;;;;;;12.60;3.15;;;5.60;77.80;;;;;;5055796;28;20483;-62
2022/04/09 04:30:19;;;;;;;8.88;1.88;;;5.70;78.00;;;;;;5053370;28;20025;-62
2022/04/09 04:32:46;;;;;;;6.97;1.70;;;5.70;78.10;;;;;;5069129;28;20020;-60
2022/04/09 04:35:12;;;;;;;12.18;2.33;;;5.70;78.30;;;;;;5071183;28;20035;-60
2022/04/09 04:37:39;;;;;;;12.05;1.58;;;5.70;78.40;;;;;;5074181;28;20043;-62
2022/04/09 04:40:07;;;;;;;7.55;1.73;;;5.70;78.40;;;;;;5073150;28;20030;-62
2022/04/09 04:42:33;;;;;;;7.82;1.67;;;5.70;78.40;;;;;;5086712;28;20032;-60
2022/04/09 04:44:59;;;;;;;7.13;1.85;;;5.70;78.30;;;;;;5057652;28;20384;-61
2022/04/09 04:47:24;;;;;;;7.97;1.65;;;5.70;78.30;;;;;;5071335;28;20036;-61
2022/04/09 04:49:50;;;;;;;8.20;1.83;;;5.60;78.30;;;;;;5076716;28;20086;-61
2022/04/09 04:52:16;;;;;;;7.93;1.48;;;5.60;78.30;;;;;;5074746;28;20024;-61
2022/04/09 04:54:42;;;;;;;7.07;1.40;;;5.50;78.30;;;;;;5071838;28;20466;-60
2022/04/09 04:57:08;;;;;;;10.98;2.20;;;5.50;78.50;;;;;;5075278;28;20111;-62
2022/04/09 04:59:33;;;;;;;9.05;1.67;;;5.50;78.60;;;;;;5060065;28;20327;-62
2022/04/09 05:01:59;;;;;;;11.43;1.85;;;5.50;78.70;;;;;;5075870;28;20028;-61
2022/04/09 05:04:25;;;;;;;8.20;1.77;;;5.40;78.70;;;;;;5078974;28;20028;-62
2022/04/09 05:06:51;;;;;;;7.10;1.60;;;5.40;78.70;;;;;;5067181;28;20078;-61
2022/04/09 05:09:17;;;;;;;6.22;1.60;;;5.40;78.80;;;;;;5081295;28;20475;-60
2022/04/09 05:11:44;;;;;;;9.77;1.80;;;5.40;78.80;;;;;;5091698;28;20028;-60
2022/04/09 05:14:09;;;;;;;10.93;2.20;;;5.40;79.40;;;;;;5079205;28;20500;-60
2022/04/09 05:16:35;;;;;;;7.28;1.85;;;5.50;78.90;;;;;;5085336;28;20071;-60
2022/04/09 05:19:01;;;;;;;7.78;1.50;;;5.40;78.80;;;;;;5085724;28;20674;-60
2022/04/09 05:21:26;;;;;;;8.70;1.92;;;5.40;78.80;;;;;;5081377;28;20550;-62
2022/04/09 05:23:52;;;;;;;4.95;1.52;;;5.50;78.80;;;;;;5077655;28;20518;-62
2022/04/09 05:26:18;;;;;;;9.10;1.83;;;5.50;79.30;;;;;;5085085;28;20466;-62
2022/04/09 05:28:43;;;;;;;9.88;1.63;;;5.50;78.60;;;;;;5087390;28;20024;-62
2022/04/09 05:31:11;;;;;;;9.05;1.58;;;5.50;78.50;;;;;;5090243;28;20024;-61
2022/04/09 05:33:38;;;;;;;6.30;1.40;;;5.50;78.40;;;;;;5091115;28;20033;-61
2022/04/09 05:36:05;;;;;;;10.07;1.77;;;5.60;78.50;;;;;;5085226;28;20042;-61
2022/04/09 05:38:31;;;;;;;7.47;1.70;;;5.60;78.50;;;;;;5066027;28;20499;-61
2022/04/09 05:40:57;;;;;;;9.10;1.98;;;5.60;78.50;;;;;;5071487;28;20024;-61
2022/04/09 05:43:23;;;;;;;13.52;1.60;;;5.70;78.60;;;;;;5072669;28;20523;-60
2022/04/09 05:45:50;;;;;;;9.95;2.20;;;5.70;78.50;;;;;;5057707;28;20503;-61
2022/04/09 05:48:18;;;;;;;6.75;1.23;;;5.70;78.60;;;;;;5074817;28;20028;-62
2022/04/09 05:50:43;;;;;;;7.57;1.52;;;5.70;78.70;;;;;;5054458;28;20116;-60
2022/04/09 05:53:09;;;;;;;7.82;1.65;;;5.70;79.00;;;;;;5081352;28;20154;-60
2022/04/09 05:55:35;;;;;;;8.63;1.70;;;5.70;79.10;;;;;;5055909;28;20113;-60
2022/04/09 05:58:00;;;;;;;7.55;1.60;;;5.70;79.00;;;;;;5070574;28;20025;-60
2022/04/09 06:00:26;;;;;;;8.32;1.40;;;5.70;78.90;;;;;;5065624;28;20036;-60
2022/04/09 06:02:54;;;;;;;6.55;1.60;;;5.80;78.80;;;;;;5090196;28;20028;-60
2022/04/09 06:05:20;;;;;;;7.15;1.80;;;5.70;78.70;;;;;;5089599;28;20395;-60
2022/04/09 06:07:46;;;;;;;12.30;2.00;;;5.70;78.60;;;;;;5088897;28;20032;-60
2022/04/09 06:10:14;;;;;;;5.82;1.33;;;5.80;78.50;;;;;;5067740;28;20075;-60
2022/04/09 06:12:40;;;;;;;6.97;1.30;;;5.80;78.50;;;;;;5070870;28;20036;-60
2022/04/09 06:15:06;;;;;;;4.45;1.48;;;5.80;78.60;;;;;;5085057;28;20048;-61
2022/04/09 06:17:33;;;;;;;11.52;1.35;;;5.90;78.60;;;;;;5075456;28;20033;-61
2022/04/09 06:19:59;;;;;;;15.10;2.10;;;5.90;78.40;;;;;;5078388;28;20107;-60
2022/04/09 06:22:24;;;;;;;8.93;1.70;;;6.00;78.30;;;;;;5074081;28;20169;-61
2022/04/09 06:24:51;;;;;;;7.10;1.67;;;6.10;78.30;;;;;;5069917;28;20032;-61
2022/04/09 06:27:16;;;;;;;8.30;1.88;;;6.20;78.00;;;;;;5070178;28;20025;-61
2022/04/09 06:29:42;;;;;;;10.88;1.95;;;6.30;77.70;;;;;;5069704;28;20028;-61
2022/04/09 06:32:08;;;;;;;13.05;3.42;;;6.30;77.30;;;;;;5052870;28;20041;-62
2022/04/09 06:34:33;;;;;;;8.52;2.17;;;6.30;77.00;;;;;;5077963;28;20064;-61
2022/04/09 06:36:59;;;;;;;9.98;2.22;;;6.30;77.10;;;;;;5077888;28;20036;-61
2022/04/09 06:39:25;;;;;;;8.70;1.75;;;6.30;76.90;;;;;;5062569;28;20040;-61
2022/04/09 06:41:51;;;;;;;8.13;1.75;;;6.30;77.10;;;;;;5082359;28;20036;-61
2022/04/09 06:44:17;;;;;;;10.13;1.98;;;6.30;77.00;;;;;;5074411;28;20028;-61
2022/04/09 06:46:43;;;;;;;6.20;1.58;;;6.40;77.00;;;;;;5035534;28;20024;-61
2022/04/09 06:49:13;;;;;;;3.30;1.10;;;6.40;76.80;;;;;;5057727;28;20372;-61
2022/04/09 06:51:39;;;;;;;5.47;1.30;;;6.50;76.50;;;;;;5070993;28;20027;-61
2022/04/09 06:54:05;;;;;;;3.13;1.13;;;6.60;76.40;;;;;;5081468;28;20021;-61
2022/04/09 06:56:32;;;;;;;5.20;1.20;;;6.60;76.10;;;;;;5071907;28;20458;-60
2022/04/09 06:58:58;;;;;;;5.20;1.42;;;6.60;75.50;;;;;;5076828;28;20025;-59
2022/04/09 07:01:25;;;;;;;7.53;1.75;;;6.70;75.70;;;;;;5068664;28;20028;-59
2022/04/09 07:03:51;;;;;;;8.80;2.17;;;6.70;75.90;;;;;;5072182;28;20033;-61
2022/04/09 07:06:17;;;;;;;11.23;2.03;;;6.70;75.70;;;;;;5067008;28;20490;-61
2022/04/09 07:08:43;;;;;;;8.52;1.70;;;6.80;75.50;;;;;;5063806;28;20029;-60
2022/04/09 07:11:08;;;;;;;7.80;1.95;;;6.80;75.60;;;;;;5075124;28;20368;-61
2022/04/09 07:13:34;;;;;;;6.60;1.75;;;6.90;75.70;;;;;;5085215;28;20089;-60
2022/04/09 07:16:00;;;;;;;8.27;1.52;;;7.00;75.50;;;;;;5076376;28;20433;-60
2022/04/09 07:18:25;;;;;;;6.47;1.73;;;7.00;75.10;;;;;;5078331;28;20035;-60
2022/04/09 07:20:51;;;;;;;8.90;1.90;;;7.00;75.00;;;;;;5085453;28;20031;-60
2022/04/09 07:23:17;;;;;;;7.53;1.80;;;7.00;74.80;;;;;;5080852;28;20049;-60
2022/04/09 07:25:43;;;;;;;8.65;1.73;;;7.10;75.00;;;;;;5079613;28;20395;-61
2022/04/09 07:28:09;;;;;;;7.32;1.67;;;7.10;74.60;;;;;;5084887;28;20111;-61
2022/04/09 07:30:35;;;;;;;6.32;1.92;;;7.20;74.30;;;;;;5086256;28;20024;-61
2022/04/09 07:33:01;;;;;;;12.25;2.47;;;7.30;74.40;;;;;;5079461;28;20086;-62
2022/04/09 07:35:27;;;;;;;6.60;1.50;;;7.40;74.20;;;;;;5078050;28;20429;-62
2022/04/09 07:37:58;;;;;;;12.13;2.50;;;7.50;73.60;;;;;;5085009;28;20056;-62
2022/04/09 07:40:27;;;;;;;12.00;2.55;;;7.60;73.20;;;;;;5068956;28;20036;-62
2022/04/09 07:42:53;;;;;;;10.65;3.80;;;7.60;72.70;;;;;;5064351;28;20052;-60
2022/04/09 07:45:19;;;;;;;7.63;1.65;;;7.60;72.90;;;;;;5085079;28;20055;-60
2022/04/09 07:47:45;;;;;;;10.20;1.83;;;7.70;72.90;;;;;;5086019;28;20178;-61
2022/04/09 07:50:11;;;;;;;10.10;3.67;;;7.70;72.80;;;;;;5077708;28;20031;-61
2022/04/09 07:52:45;;;;;;;10.13;3.03;;;7.70;72.90;;;;;;5055502;28;20028;-62
2022/04/09 07:55:14;;;;;;;9.30;3.97;;;7.80;73.10;;;;;;5081187;28;20025;-61
2022/04/09 07:57:41;;;;;;;3.67;1.20;;;7.80;72.40;;;;;;5089661;28;20111;-61
2022/04/09 08:00:07;;;;;;;3.58;1.30;;;7.80;70.60;;;;;;5089617;28;20036;-61
2022/04/09 08:02:34;;;;;;;5.78;1.58;;;7.70;70.40;;;;;;5080333;28;20038;-62
2022/04/09 08:05:00;;;;;;;2.80;0.93;;;7.60;70.90;;;;;;5079455;28;20079;-61
2022/04/09 08:07:26;;;;;;;5.32;1.80;;;7.60;70.80;;;;;;5086371;28;20059;-61
2022/04/09 08:09:51;;;;;;;6.57;1.92;;;7.60;71.40;;;;;;5054585;28;20051;-61
2022/04/09 08:12:17;;;;;;;5.68;1.90;;;7.60;71.60;;;;;;5084411;28;20035;-61
2022/04/09 08:14:43;;;;;;;4.35;1.67;;;7.70;71.40;;;;;;5067633;28;20024;-61
2022/04/09 08:17:09;;;;;;;8.15;2.38;;;7.70;71.60;;;;;;5088813;28;20039;-60
2022/04/09 08:19:35;;;;;;;9.32;1.45;;;7.80;71.90;;;;;;5085417;28;20399;-61
2022/04/09 08:22:02;;;;;;;7.05;1.50;;;7.80;71.50;;;;;;5091524;28;20036;-60
2022/04/09 08:24:28;;;;;;;8.40;1.17;;;7.70;71.20;;;;;;5078634;28;20081;-61
2022/04/09 08:26:54;;;;;;;4.47;1.55;;;7.60;71.30;;;;;;5086968;28;20562;-61
2022/04/09 08:29:20;;;;;;;6.00;1.50;;;7.60;71.90;;;;;;5089840;28;20123;-60
2022/04/09 08:31:49;;;;;;;3.75;1.05;;;7.60;71.50;;;;;;5080427;28;20056;-60
2022/04/09 08:34:15;;;;;;;5.10;1.02;;;7.70;71.70;;;;;;5061038;28;20089;-61
2022/04/09 08:36:41;;;;;;;5.80;1.00;;;7.70;70.90;;;;;;5085737;28;20403;-60
2022/04/09 08:39:07;;;;;;;6.43;1.10;;;7.80;71.30;;;;;;5084242;28;20041;-61
2022/04/09 08:41:36;;;;;;;6.93;1.05;;;8.00;70.70;;;;;;5083617;28;20030;-61
2022/04/09 08:44:03;;;;;;;7.35;1.70;;;8.10;69.20;;;;;;5066538;28;20947;-61
2022/04/09 08:46:29;;;;;;;5.60;1.45;;;8.20;68.80;;;;;;5084212;28;20024;-60
2022/04/09 08:48:58;;;;;;;4.53;1.02;;;8.40;68.50;;;;;;5095200;28;20092;-61
2022/04/09 08:51:24;;;;;;;5.15;0.90;;;8.40;68.00;;;;;;5071582;28;20382;-61
2022/04/09 08:53:50;;;;;;;2.55;0.80;;;8.30;69.20;;;;;;5088254;28;20028;-60
2022/04/09 08:56:18;;;;;;;2.70;0.80;;;8.20;70.20;;;;;;5073216;28;20024;-61
2022/04/09 08:58:44;;;;;;;6.30;0.93;;;8.10;71.20;;;;;;5099800;28;20070;-60
2022/04/09 09:01:10;;;;;;;4.15;0.90;;;8.10;72.00;;;;;;5086727;28;20073;-61
2022/04/09 09:03:36;;;;;;;6.60;1.42;;;8.10;71.60;;;;;;5071160;28;20036;-60
2022/04/09 09:06:23;;;;;;;5.38;1.30;;;8.20;71.20;;;;;;5073718;28;20157;-61
2022/04/09 09:08:49;;;;;;;8.82;1.38;;;8.20;70.90;;;;;;5096188;28;20375;-61
2022/04/09 09:11:16;;;;;;;6.38;1.58;;;8.30;70.80;;;;;;5097908;28;20039;-61
2022/04/09 09:13:46;;;;;;;7.68;1.77;;;8.50;71.00;;;;;;5091862;28;20042;-60
2022/04/09 09:16:30;;;;;;;7.10;1.58;;;8.60;70.10;;;;;;5085831;28;20153;-60
2022/04/09 09:19:07;;;;;;;8.15;1.63;;;8.80;68.30;;;;;;5085723;28;20562;-60
2022/04/09 09:21:33;;;;;;;8.75;1.60;;;8.90;67.30;;;;;;5083927;28;20032;-61
2022/04/09 09:24:14;;;;;;;10.55;1.50;;;8.90;65.70;;;;;;5099040;28;20111;-60
2022/04/09 09:26:40;;;;;;;8.60;1.92;;;8.90;65.80;;;;;;5075328;28;20089;-60
2022/04/09 09:29:11;;;;;;;6.45;1.42;;;9.10;65.30;;;;;;5083443;28;20043;-60
2022/04/09 09:31:45;;;;;;;4.38;1.25;;;9.20;64.90;;;;;;5086489;28;20085;-60
2022/04/09 09:34:12;;;;;;;6.13;1.75;;;9.20;64.80;;;;;;5092891;28;20047;-61
2022/04/09 09:36:40;;;;;;;7.20;1.30;;;9.30;62.80;;;;;;5069033;28;20611;-60
2022/04/09 09:39:07;;;;;;;5.53;1.30;;;9.20;63.20;;;;;;5075217;28;20172;-60
2022/04/09 09:41:33;;;;;;;9.70;1.20;;;9.30;63.80;;;;;;5078846;28;20032;-61
2022/04/09 09:44:06;;;;;;;5.22;1.40;;;9.40;63.80;;;;;;5083651;28;20043;-60
2022/04/09 09:46:33;;;;;;;6.88;1.42;;;9.40;63.20;;;;;;5078274;28;20376;-60
2022/04/09 09:48:59;;;;;;;7.55;1.35;;;9.30;63.30;;;;;;5073162;28;20031;-60
2022/04/09 09:51:25;;;;;;;5.50;1.23;;;9.20;62.50;;;;;;5087874;28;20510;-60
2022/04/09 09:54:07;;;;;;;6.57;1.13;;;9.10;63.20;;;;;;5088943;28;20023;-60
2022/04/09 09:56:35;;;;;;;7.07;1.50;;;9.00;64.30;;;;;;5060668;28;20446;-61
2022/04/09 09:59:05;;;;;;;7.50;1.45;;;8.90;65.20;;;;;;5078344;28;20093;-60
2022/04/09 10:01:54;;;;;;;5.13;1.05;;;8.90;65.80;;;;;;5087557;28;20056;-61
2022/04/09 10:04:21;;;;;;;7.22;1.23;;;8.70;67.60;;;;;;5077519;28;20025;-61
2022/04/09 10:06:46;;;;;;;5.05;1.05;;;8.40;69.00;;;;;;5096976;28;20094;-61
2022/04/09 10:09:18;;;;;;;2.65;1.00;;;8.20;70.60;;;;;;5089758;28;20111;-60
2022/04/09 10:11:50;;;;;;;3.03;0.85;;;7.90;71.60;;;;;;5090136;28;20020;-60
2022/04/09 10:14:21;;;;;;;7.90;2.80;;;7.60;72.10;;;;;;5078209;28;20372;-60
2022/04/09 10:16:51;;;;;;;6.47;2.00;;;7.50;73.20;;;;;;5077495;28;20055;-60
2022/04/09 10:19:19;;;;;;;7.07;1.80;;;7.40;74.40;;;;;;5062815;28;20109;-60
2022/04/09 10:21:47;;;;;;;3.58;1.08;;;7.20;74.80;;;;;;5093166;28;20081;-60
2022/04/09 10:24:18;;;;;;;4.75;1.17;;;7.20;75.10;;;;;;5090333;28;20048;-60
2022/04/09 10:26:45;;;;;;;5.38;1.20;;;7.10;75.70;;;;;;5079680;28;20383;-60
2022/04/09 10:29:11;;;;;;;4.53;1.38;;;7.10;75.90;;;;;;5065652;28;20024;-60
2022/04/09 10:31:41;;;;;;;5.82;1.05;;;7.10;76.00;;;;;;5088566;28;20020;-60
2022/04/09 10:34:10;;;;;;;5.47;1.08;;;7.10;75.90;;;;;;5076300;28;20732;-59
2022/04/09 10:36:45;;;;;;;3.55;0.95;;;7.10;76.00;;;;;;5090535;28;20463;-59
2022/04/09 10:39:49;;;;;;;6.10;1.10;;;7.30;77.30;;;;;;5081341;28;20029;-59
2022/04/09 10:42:48;;;;;;;3.60;0.82;;;7.40;77.60;;;;;;5070370;28;20046;-60
2022/04/09 10:45:13;;;;;;;2.53;0.82;;;7.70;77.80;;;;;;5080155;28;20036;-60
2022/04/09 10:48:04;;;;;;;3.00;1.00;;;7.90;77.00;;;;;;5084463;28;20032;-60
2022/04/09 10:50:56;;;;;;;5.50;1.25;;;8.10;76.30;;;;;;5068446;28;20119;-61
2022/04/09 10:53:24;;;;;;;2.58;1.02;;;8.40;77.00;;;;;;5075053;28;20033;-61
2022/04/09 10:56:15;;;;;;;3.97;0.88;;;8.60;75.70;;;;;;5070348;28;20072;-61
2022/04/09 10:59:25;;;;;;;7.13;1.70;;;8.70;74.90;;;;;;5052793;28;20437;-60
2022/04/09 11:01:52;;;;;;;3.88;0.60;;;8.60;73.70;;;;;;5052362;28;20127;-61
2022/04/09 11:04:34;;;;;;;2.83;0.68;;;8.50;73.90;;;;;;5070512;28;20454;-61
2022/04/09 11:07:23;;;;;;;3.92;0.98;;;8.50;73.50;;;;;;5069450;28;20105;-61
2022/04/09 11:10:03;;;;;;;4.68;1.10;;;8.70;72.80;;;;;;5058410;28;20032;-62
2022/04/09 11:12:43;;;;;;;5.55;1.52;;;8.80;72.70;;;;;;5075397;28;20028;-61
2022/04/09 11:15:15;;;;;;;3.63;0.80;;;8.90;72.70;;;;;;5078754;28;20028;-62
2022/04/09 11:17:45;;;;;;;5.68;1.00;;;9.00;72.70;;;;;;5073221;28;20482;-61
2022/04/09 11:20:21;;;;;;;3.45;0.90;;;9.00;71.90;;;;;;5075727;28;20035;-61
2022/04/09 11:22:52;;;;;;;3.22;1.15;;;8.90;72.40;;;;;;5084195;28;20021;-60
2022/04/09 11:25:22;;;;;;;3.25;1.15;;;8.70;72.50;;;;;;5074072;28;20036;-60
2022/04/09 11:27:48;;;;;;;3.20;0.90;;;8.50;72.40;;;;;;5069564;28;20047;-60
2022/04/09 11:30:15;;;;;;;2.35;0.90;;;8.30;72.10;;;;;;5085418;28;20028;-60
2022/04/09 11:32:41;;;;;;;3.30;0.60;;;8.10;72.60;;;;;;5069213;28;20037;-63
2022/04/09 11:35:10;;;;;;;3.22;0.80;;;8.00;72.80;;;;;;5078432;28;20032;-62
2022/04/09 11:37:41;;;;;;;2.63;0.80;;;8.00;72.90;;;;;;5092768;28;20020;-61
2022/04/09 11:40:09;;;;;;;1.88;0.65;;;7.90;73.50;;;;;;5092941;28;20032;-60
2022/04/09 11:42:51;;;;;;;3.47;0.80;;;7.90;73.70;;;;;;5079352;28;20038;-61
2022/04/09 11:45:28;;;;;;;2.42;0.60;;;7.90;73.70;;;;;;5073707;28;20086;-60
2022/04/09 11:47:59;;;;;;;1.85;0.60;;;7.90;73.30;;;;;;5082760;28;20028;-60
2022/04/09 11:50:30;;;;;;;4.82;1.33;;;8.00;73.30;;;;;;5051142;28;20036;-61
2022/04/09 11:52:56;;;;;;;4.32;1.17;;;8.00;73.20;;;;;;5090129;28;20016;-61
2022/04/09 11:55:22;;;;;;;4.07;1.20;;;8.20;73.80;;;;;;5098665;28;20455;-60
2022/04/09 11:57:53;;;;;;;4.05;0.88;;;8.50;73.70;;;;;;5099203;28;20027;-61
2022/04/09 12:00:23;;;;;;;6.03;1.02;;;8.70;72.90;;;;;;5094406;28;20506;-61
2022/04/09 12:02:49;;;;;;;4.63;1.30;;;8.90;72.90;;;;;;5089797;28;20059;-61
2022/04/09 12:05:15;;;;;;;3.83;1.27;;;9.20;72.50;;;;;;5094260;28;20024;-62
2022/04/09 12:07:45;;;;;;;6.63;1.27;;;9.40;71.80;;;;;;5097119;28;20020;-61
2022/04/09 12:10:27;;;;;;;6.93;1.50;;;9.60;71.30;;;;;;5091850;28;20458;-62
2022/04/09 12:13:07;;;;;;;2.75;1.23;;;9.80;69.90;;;;;;5098907;28;20039;-61
2022/04/09 12:15:35;;;;;;;8.38;1.50;;;9.90;70.00;;;;;;5092704;28;20162;-61
2022/04/09 12:18:05;;;;;;;5.07;1.25;;;9.80;70.20;;;;;;5095265;28;20020;-62
2022/04/09 12:20:33;;;;;;;4.40;1.48;;;9.70;71.20;;;;;;5097819;28;20035;-62
2022/04/09 12:23:00;;;;;;;4.47;1.00;;;9.50;70.00;;;;;;5094171;28;20047;-62
2022/04/09 12:25:34;;;;;;;4.72;1.42;;;9.10;69.10;;;;;;5096750;28;20028;-62
2022/04/09 12:27:59;;;;;;;4.32;1.02;;;8.70;69.60;;;;;;5094369;28;20023;-62
2022/04/09 12:30:41;;;;;;;2.42;0.82;;;8.40;70.70;;;;;;5094913;28;20069;-62
2022/04/09 12:33:11;;;;;;;4.43;1.38;;;8.20;71.70;;;;;;5091737;28;20102;-62
2022/04/09 12:35:36;;;;;;;2.83;0.90;;;8.00;72.30;;;;;;5091028;28;20028;-62
2022/04/09 12:38:03;;;;;;;3.15;0.65;;;7.90;72.90;;;;;;5097701;28;20115;-62
2022/04/09 12:40:30;;;;;;;4.88;1.10;;;7.80;73.20;;;;;;5076121;28;20388;-62
2022/04/09 12:42:56;;;;;;;2.80;1.77;;;7.80;73.40;;;;;;5103275;28;20474;-61
2022/04/09 12:45:27;;;;;;;4.35;1.67;;;7.80;73.50;;;;;;5079217;28;20495;-60
2022/04/09 12:48:01;;;;;;;4.53;1.33;;;8.00;74.40;;;;;;5092084;28;20111;-61
2022/04/09 12:50:32;;;;;;;3.55;1.15;;;8.30;75.60;;;;;;5091854;28;20102;-61
2022/04/09 12:53:00;;;;;;;2.13;1.10;;;8.50;74.40;;;;;;5092134;28;20078;-62
2022/04/09 12:55:26;;;;;;;3.05;1.13;;;8.50;74.30;;;;;;5090878;28;20024;-60
2022/04/09 12:57:56;;;;;;;3.75;1.00;;;8.40;73.60;;;;;;5092508;28;20034;-61
2022/04/09 13:00:23;;;;;;;7.82;1.20;;;8.30;74.00;;;;;;5058463;28;20380;-60
2022/04/09 13:02:50;;;;;;;5.28;0.98;;;8.20;74.30;;;;;;5093344;28;20056;-60